Time;durP1;ratioP1;P1;durP2;ratioP2;P2;SDS_P1;SDS_P2;PMS_P1;PMS_P2;Temp;Humidity;BMP_temperature;BMP_pressure;BME280_temperature;BME280_humidity;BME280_pressure;Samples;Min_cycle;Max_cycle;Signal;HPM_P1;HPM_P2
2023/01/30 07:10:43;;;;;;;23.65;14.52;;;;;;;0.44;90.01;96595.63;5049731;28;20063;-63
2023/01/30 07:13:10;;;;;;;23.63;14.43;;;;;;;0.53;89.90;96597.38;5072965;28;20079;-63
2023/01/30 07:15:38;;;;;;;23.52;14.10;;;;;;;0.54;89.49;96591.41;5072712;28;20052;-62
2023/01/30 07:18:05;;;;;;;21.98;14.48;;;;;;;0.62;89.20;96587.09;5072603;28;20551;-64
2023/01/30 07:20:32;;;;;;;24.90;16.25;;;;;;;0.68;89.28;96593.97;5072669;28;20127;-63
2023/01/30 07:23:00;;;;;;;21.50;14.48;;;;;;;0.74;88.57;96586.28;5072588;28;20106;-64
2023/01/30 07:25:28;;;;;;;19.65;13.02;;;;;;;0.72;88.08;96588.84;5072654;28;20395;-62
2023/01/30 07:27:58;;;;;;;22.88;14.13;;;;;;;0.72;88.27;96586.28;5072665;28;20079;-61
2023/01/30 07:30:25;;;;;;;21.35;13.50;;;;;;;0.73;88.42;96577.69;5074360;28;20139;-63
2023/01/30 07:32:53;;;;;;;23.95;14.40;;;;;;;0.84;87.61;96576.88;5076496;28;20067;-63
2023/01/30 07:35:21;;;;;;;24.13;15.02;;;;;;;0.83;87.67;96581.16;5076286;28;20055;-65
2023/01/30 07:37:48;;;;;;;21.75;13.85;;;;;;;0.87;87.23;96580.28;5076228;28;20048;-64
2023/01/30 07:40:16;;;;;;;26.48;14.13;;;;;;;0.90;87.44;96574.28;5076406;28;20094;-64
2023/01/30 07:42:43;;;;;;;17.35;12.27;;;;;;;0.95;86.40;96582.88;5076162;28;20048;-63
2023/01/30 07:45:12;;;;;;;22.42;13.88;;;;;;;0.90;86.96;96576.00;5076149;28;20139;-64
2023/01/30 07:47:39;;;;;;;22.52;14.15;;;;;;;1.06;87.34;96579.44;5076327;28;20490;-65
2023/01/30 07:50:08;;;;;;;18.40;14.30;;;;;;;1.28;86.65;96574.28;5075967;28;20489;-65
2023/01/30 07:52:35;;;;;;;20.08;13.35;;;;;;;1.51;85.82;96572.53;5076165;28;20056;-65
2023/01/30 07:55:02;;;;;;;14.10;10.40;;;;;;;1.79;84.17;96563.88;5075980;28;20119;-62
2023/01/30 07:57:33;;;;;;;15.63;10.80;;;;;;;1.94;82.11;96567.28;5075920;28;20407;-64
2023/01/30 08:00:01;;;;;;;15.38;10.70;;;;;;;1.98;82.04;96562.09;5075873;28;20396;-62
2023/01/30 08:02:29;;;;;;;36.30;20.75;;;;;;;2.00;81.54;96557.81;5075874;28;20044;-64
2023/01/30 08:04:56;;;;;;;25.27;16.08;;;;;;;2.07;81.72;96550.88;5075835;28;20485;-64
2023/01/30 08:07:23;;;;;;;17.05;12.13;;;;;;;2.09;82.04;96551.75;5075800;28;20048;-64
2023/01/30 08:09:50;;;;;;;13.40;9.95;;;;;;;2.06;81.21;96550.91;5075721;28;20079;-64
2023/01/30 08:12:18;;;;;;;16.70;12.30;;;;;;;2.12;81.22;96548.28;5075510;28;20110;-63
2023/01/30 08:14:45;;;;;;;16.23;10.90;;;;;;;2.19;80.72;96551.69;5075579;28;20045;-63
2023/01/30 08:17:12;;;;;;;15.27;11.13;;;;;;;2.31;81.16;96550.78;5075478;28;20048;-65
2023/01/30 08:19:41;;;;;;;15.00;10.85;;;;;;;2.28;80.14;96546.50;5075515;28;20052;-64
2023/01/30 08:22:08;;;;;;;15.68;10.65;;;;;;;2.52;80.75;96552.41;5075503;28;20131;-64
2023/01/30 08:24:35;;;;;;;14.73;10.68;;;;;;;2.75;79.49;96551.41;5075693;28;20486;-63
2023/01/30 08:27:02;;;;;;;12.48;9.38;;;;;;;2.57;78.32;96550.66;5075319;28;20102;-65
2023/01/30 08:29:29;;;;;;;18.27;10.90;;;;;;;2.63;79.40;96544.59;5075406;28;20045;-64
2023/01/30 08:31:58;;;;;;;14.13;9.77;;;;;;;2.55;79.43;96547.22;5075509;28;20091;-64
2023/01/30 08:34:25;;;;;;;14.75;10.88;;;;;;;2.52;79.37;96542.94;5075490;28;20056;-63
2023/01/30 08:36:54;;;;;;;13.90;10.05;;;;;;;2.41;79.72;96552.47;5075314;28;20147;-63
2023/01/30 08:39:21;;;;;;;13.25;8.93;;;;;;;2.39;78.79;96549.91;5075086;28;20048;-61
2023/01/30 08:41:48;;;;;;;15.43;9.30;;;;;;;2.35;79.30;96550.75;5074250;28;20098;-63
2023/01/30 08:44:15;;;;;;;15.02;10.52;;;;;;;2.13;78.70;96539.69;5075266;28;20051;-62
2023/01/30 08:46:42;;;;;;;14.10;9.43;;;;;;;2.13;80.00;96545.72;5075086;28;20044;-63
2023/01/30 08:49:11;;;;;;;16.52;10.40;;;;;;;2.04;80.09;96544.91;5074884;28;20044;-61
2023/01/30 08:51:38;;;;;;;13.82;9.45;;;;;;;2.04;80.51;96544.91;5074845;28;20049;-63
2023/01/30 08:54:07;;;;;;;10.82;8.20;;;;;;;1.93;79.70;96537.19;5074800;28;20552;-64
2023/01/30 08:56:35;;;;;;;11.57;7.75;;;;;;;1.92;79.40;96544.06;5074901;28;20087;-63
2023/01/30 08:59:02;;;;;;;11.55;8.43;;;;;;;1.98;79.76;96538.88;5074672;28;20052;-64
2023/01/30 09:01:29;;;;;;;13.13;9.10;;;;;;;1.96;79.00;96538.03;5074792;28;20084;-63
2023/01/30 09:03:56;;;;;;;13.77;8.85;;;;;;;2.02;78.00;96530.25;5074682;28;20085;-63
2023/01/30 09:06:23;;;;;;;12.77;8.10;;;;;;;2.03;77.80;96528.53;5074664;28;20073;-64
2023/01/30 09:08:50;;;;;;;10.57;7.88;;;;;;;2.10;77.44;96529.38;5074578;28;20052;-64
2023/01/30 09:11:19;;;;;;;12.52;9.00;;;;;;;2.12;79.23;96520.78;5074567;28;20080;-64
2023/01/30 09:13:46;;;;;;;12.80;8.90;;;;;;;2.18;79.98;96517.31;5074404;28;20132;-64
2023/01/30 09:16:13;;;;;;;13.95;9.40;;;;;;;2.17;79.34;96512.16;5074467;28;20052;-63
2023/01/30 09:18:41;;;;;;;11.90;8.20;;;;;;;2.21;79.47;96509.53;5074290;28;20147;-63
2023/01/30 09:21:09;;;;;;;12.23;8.52;;;;;;;2.25;78.71;96508.66;5074329;28;20056;-62
2023/01/30 09:23:37;;;;;;;10.10;6.72;;;;;;;2.30;77.38;96505.19;5074357;28;20409;-64
2023/01/30 09:26:05;;;;;;;7.60;6.30;;;;;;;2.34;76.42;96502.56;5074328;28;20118;-63
2023/01/30 09:28:34;;;;;;;9.55;7.07;;;;;;;2.42;76.25;96499.09;5074253;28;20052;-64
2023/01/30 09:31:02;;;;;;;10.27;8.50;;;;;;;2.43;75.47;96496.50;5074109;28;20071;-64
2023/01/30 09:33:29;;;;;;;9.38;6.75;;;;;;;2.35;75.76;96495.69;5074084;28;20486;-63
2023/01/30 09:35:56;;;;;;;9.88;7.30;;;;;;;2.36;76.35;96495.69;5074004;28;20051;-64
2023/01/30 09:38:23;;;;;;;7.80;6.35;;;;;;;2.28;76.65;96487.13;5073816;28;20052;-64
2023/01/30 09:41:01;;;;;;;8.35;6.07;;;;;;;2.14;78.20;96482.06;5073929;28;20049;-64
2023/01/30 09:43:44;;;;;;;11.07;7.10;;;;;;;2.22;79.33;96474.25;5073853;28;20087;-64
2023/01/30 09:46:26;;;;;;;10.38;6.97;;;;;;;2.29;79.08;96477.66;5073871;28;20123;-64
2023/01/30 09:49:05;;;;;;;8.25;5.85;;;;;;;2.02;78.35;96449.41;5073975;28;20067;-64
2023/01/30 09:51:42;;;;;;;9.23;6.53;;;;;;;2.19;78.16;96469.09;5073687;28;20040;-64
2023/01/30 09:54:20;;;;;;;7.25;5.80;;;;;;;2.18;77.57;96467.38;5073670;28;20056;-63
2023/01/30 09:56:56;;;;;;;8.52;5.80;;;;;;;2.02;78.62;96460.59;5073719;28;20044;-64
2023/01/30 09:59:32;;;;;;;8.18;6.53;;;;;;;2.08;79.34;96464.84;5073554;28;20131;-62
2023/01/30 10:02:05;;;;;;;7.88;5.85;;;;;;;2.14;78.11;96459.66;5073619;28;20053;-63
2023/01/30 10:04:36;;;;;;;7.95;6.22;;;;;;;2.18;77.47;96455.34;5073738;28;20044;-62
2023/01/30 10:07:14;;;;;;;8.48;6.45;;;;;;;2.22;78.47;96451.00;5073575;28;20048;-62
2023/01/30 10:09:54;;;;;;;8.90;7.05;;;;;;;2.20;78.52;96443.28;5073420;28;20045;-63
2023/01/30 10:12:37;;;;;;;7.82;5.55;;;;;;;2.14;78.74;96436.44;5073286;28;20045;-63
2023/01/30 10:15:21;;;;;;;8.07;5.80;;;;;;;2.02;79.08;96427.03;5073417;28;20045;-62
2023/01/30 10:18:04;;;;;;;9.27;6.35;;;;;;;1.93;78.49;96426.25;5073295;28;20056;-63
2023/01/30 10:20:42;;;;;;;9.80;6.88;;;;;;;1.98;80.47;96420.19;5073305;28;20075;-62
2023/01/30 10:23:36;;;;;;;9.30;5.63;;;;;;;1.86;78.90;96412.50;5073296;28;20394;-63
2023/01/30 10:26:10;;;;;;;7.93;5.22;;;;;;;1.86;80.60;96407.34;5073490;28;20049;-62
2023/01/30 10:28:42;;;;;;;7.85;5.95;;;;;;;1.96;81.33;96405.59;5073316;28;20048;-62
2023/01/30 10:31:14;;;;;;;10.68;6.85;;;;;;;2.03;79.92;96404.69;5073331;28;20126;-63
2023/01/30 10:33:57;;;;;;;10.20;6.78;;;;;;;2.16;79.15;96404.63;5073251;28;20044;-63
2023/01/30 10:36:31;;;;;;;10.40;6.38;;;;;;;2.23;78.31;96393.38;5073042;28;20044;-62
2023/01/30 10:39:01;;;;;;;12.70;7.30;;;;;;;2.22;78.55;96391.63;5073006;28;20048;-62
2023/01/30 10:41:34;;;;;;;8.18;5.95;;;;;;;2.21;77.89;96390.81;5073106;28;20068;-63
2023/01/30 10:44:05;;;;;;;10.88;6.75;;;;;;;2.08;78.43;96371.94;5073020;28;20063;-63
2023/01/30 10:46:57;;;;;;;13.48;6.60;;;;;;;2.24;78.31;96372.72;5073011;28;20052;-63
2023/01/30 10:49:31;;;;;;;9.48;6.53;;;;;;;2.25;77.53;96369.25;5073057;28;20045;-62
2023/01/30 10:52:07;;;;;;;9.85;6.45;;;;;;;2.11;78.37;96360.75;5073032;28;20127;-62
2023/01/30 10:54:40;;;;;;;11.90;7.70;;;;;;;2.26;79.01;96359.78;5072926;28;20049;-63
2023/01/30 10:57:18;;;;;;;9.65;6.80;;;;;;;2.31;79.11;96360.59;5072905;28;20051;-63
2023/01/30 10:59:55;;;;;;;8.93;6.72;;;;;;;2.44;77.70;96345.84;5072949;28;20049;-62
2023/01/30 11:02:35;;;;;;;8.45;6.13;;;;;;;2.56;77.11;96341.47;5072975;28;20573;-64
2023/01/30 11:05:04;;;;;;;;;;;;;;;2.57;75.86;96332.84;5074459;28;20133;-63
2023/01/30 11:07:33;;;;;;;8.95;6.32;;;;;;;2.51;76.57;96329.47;5077159;28;20361;-63
2023/01/30 11:10:00;;;;;;;8.60;5.30;;;;;;;2.65;75.67;96324.13;5076909;28;20448;-64
2023/01/30 11:12:28;;;;;;;7.30;5.47;;;;;;;2.71;75.78;96320.63;5076852;28;20084;-62
2023/01/30 11:14:58;;;;;;;8.93;6.25;;;;;;;2.89;73.70;96314.41;5076786;28;20080;-63
2023/01/30 11:17:36;;;;;;;6.85;5.75;;;;;;;3.07;73.30;96315.06;5076768;28;20057;-64
2023/01/30 11:20:08;;;;;;;7.55;5.53;;;;;;;3.05;71.73;96305.63;5076659;28;20051;-63
2023/01/30 11:22:37;;;;;;;7.30;4.88;;;;;;;3.08;70.35;96305.59;5076603;28;20045;-63
2023/01/30 11:25:11;;;;;;;6.32;4.70;;;;;;;3.04;68.93;96297.00;5076744;28;20045;-63
2023/01/30 11:27:38;;;;;;;5.80;4.60;;;;;;;3.03;68.18;96297.91;5076452;28;20056;-62
2023/01/30 11:30:14;;;;;;;7.45;5.05;;;;;;;2.91;68.62;96291.16;5076402;28;20057;-63
2023/01/30 11:32:45;;;;;;;6.88;5.32;;;;;;;2.76;69.74;96284.41;5076375;28;20106;-63
2023/01/30 11:35:28;;;;;;;11.88;5.50;;;;;;;2.76;70.54;96289.59;5076274;28;20045;-64
2023/01/30 11:38:11;;;;;;;7.68;5.13;;;;;;;2.81;70.74;96276.63;5076207;28;20053;-63
2023/01/30 11:40:40;;;;;;;8.77;5.10;;;;;;;2.81;68.31;96276.63;5076204;28;20049;-62
2023/01/30 11:43:12;;;;;;;8.88;6.30;;;;;;;2.90;69.01;96261.88;5076264;28;20094;-63
2023/01/30 11:45:41;;;;;;;6.57;4.80;;;;;;;3.02;67.67;96262.59;5076217;28;20080;-62
2023/01/30 11:48:18;;;;;;;6.88;5.28;;;;;;;3.03;68.87;96249.66;5076165;28;20048;-65
2023/01/30 11:50:48;;;;;;;7.78;5.80;;;;;;;3.09;69.92;96242.69;5075998;28;20499;-63
2023/01/30 11:53:25;;;;;;;9.13;6.65;;;;;;;2.99;70.10;96236.78;5076099;28;20452;-62
2023/01/30 11:55:56;;;;;;;9.98;7.20;;;;;;;2.81;72.30;96227.53;5075874;28;20040;-63
2023/01/30 11:58:23;;;;;;;8.50;5.68;;;;;;;2.76;71.87;96227.59;5076071;28;20053;-62
2023/01/30 12:00:50;;;;;;;7.88;5.97;;;;;;;2.65;69.60;96228.56;5075997;28;20052;-62
2023/01/30 12:03:24;;;;;;;9.05;6.28;;;;;;;2.64;72.47;96226.00;5075780;28;20132;-62
2023/01/30 12:05:51;;;;;;;10.70;6.85;;;;;;;2.56;71.21;96223.50;5075867;28;20045;-62
2023/01/30 12:08:25;;;;;;;16.60;9.43;;;;;;;2.57;72.77;96214.91;5075841;28;20044;-63
2023/01/30 12:10:56;;;;;;;10.05;6.55;;;;;;;2.55;73.04;96214.03;5075646;28;20044;-64
2023/01/30 12:13:29;;;;;;;11.57;8.65;;;;;;;2.66;73.24;96219.09;5075762;28;20128;-63
2023/01/30 12:16:07;;;;;;;8.98;6.65;;;;;;;2.58;69.73;96211.44;5074864;28;20149;-63
2023/01/30 12:18:43;;;;;;;10.45;6.75;;;;;;;2.59;70.63;96209.72;5075155;28;20084;-63
2023/01/30 12:21:21;;;;;;;8.70;6.78;;;;;;;2.61;72.09;96206.22;5075483;28;20275;-63
2023/01/30 12:23:56;;;;;;;13.50;9.63;;;;;;;2.56;71.68;96205.41;5075381;28;20052;-64
2023/01/30 12:26:30;;;;;;;11.45;8.60;;;;;;;2.63;71.19;96201.91;5075599;28;20048;-62
2023/01/30 12:29:03;;;;;;;11.45;8.10;;;;;;;2.56;71.46;96202.00;5075287;28;20224;-63
2023/01/30 12:31:35;;;;;;;10.38;7.15;;;;;;;2.51;71.43;96202.06;5075384;28;20080;-63
2023/01/30 12:34:05;;;;;;;11.73;7.45;;;;;;;2.45;71.68;96197.81;5075614;28;20044;-64
2023/01/30 12:36:42;;;;;;;15.02;10.15;;;;;;;2.50;72.12;96200.34;5075459;28;20102;-62
2023/01/30 12:39:31;;;;;;;8.52;6.53;;;;;;;2.48;72.07;96187.44;5075157;28;20052;-64
2023/01/30 12:42:19;;;;;;;14.20;9.63;;;;;;;2.34;70.88;96189.31;5075075;28;20509;-62
2023/01/30 12:45:01;;;;;;;11.15;8.25;;;;;;;2.40;70.76;96191.84;5075127;28;20147;-62
2023/01/30 12:47:56;;;;;;;7.93;6.18;;;;;;;2.31;71.31;96187.63;5074968;28;20471;-63
2023/01/30 12:50:40;;;;;;;8.73;6.15;;;;;;;2.32;71.64;96180.75;5074952;28;20079;-62
2023/01/30 12:53:24;;;;;;;11.07;7.35;;;;;;;2.36;72.19;96185.88;5075070;28;20076;-63
2023/01/30 12:56:00;;;;;;;10.27;6.63;;;;;;;2.42;71.64;96187.53;5074891;28;20127;-63
2023/01/30 12:58:33;;;;;;;10.05;7.03;;;;;;;2.36;71.84;96191.03;5074710;28;20058;-63
2023/01/30 13:01:15;;;;;;;10.70;7.93;;;;;;;2.34;72.01;96174.69;5074796;28;20056;-63
2023/01/30 13:03:51;;;;;;;12.60;7.38;;;;;;;2.34;72.18;96173.81;5074743;28;20131;-63
2023/01/30 13:06:35;;;;;;;10.32;7.35;;;;;;;2.29;72.21;96171.31;5074694;28;20406;-62
2023/01/30 13:09:18;;;;;;;12.02;8.38;;;;;;;2.30;72.01;96175.59;5074630;28;20131;-63
2023/01/30 13:11:55;;;;;;;13.80;9.43;;;;;;;2.26;71.45;96171.34;5074472;28;20045;-63
2023/01/30 13:14:29;;;;;;;13.43;8.52;;;;;;;2.17;71.29;96168.84;5074484;28;20391;-63
2023/01/30 13:17:13;;;;;;;10.30;7.22;;;;;;;2.22;71.76;96172.22;5074569;28;20398;-62
2023/01/30 13:19:46;;;;;;;11.88;8.40;;;;;;;2.29;72.19;96167.88;5074414;28;20048;-63
2023/01/30 13:22:21;;;;;;;12.48;8.88;;;;;;;2.22;71.77;96162.78;5074312;28;20040;-62
2023/01/30 13:24:59;;;;;;;11.48;8.27;;;;;;;2.18;72.54;96161.09;5074192;28;20128;-63
2023/01/30 13:27:28;;;;;;;10.63;7.75;;;;;;;2.14;73.67;96157.69;5074249;28;20128;-63
2023/01/30 13:29:59;;;;;;;11.48;7.38;;;;;;;2.21;74.36;96155.91;5074279;28;20444;-63
2023/01/30 13:32:35;;;;;;;12.52;7.90;;;;;;;2.18;73.14;96155.94;5074172;28;20072;-62
2023/01/30 13:35:07;;;;;;;11.57;8.10;;;;;;;2.18;74.02;96152.50;5073990;28;20387;-63
2023/01/30 13:37:38;;;;;;;13.32;9.45;;;;;;;2.25;74.54;96155.00;5073987;28;20047;-62
2023/01/30 13:40:16;;;;;;;15.40;10.45;;;;;;;2.31;74.29;96153.19;5073854;28;20056;-63
2023/01/30 13:42:51;;;;;;;12.57;8.88;;;;;;;2.28;73.97;96146.34;5073911;28;20097;-63
2023/01/30 13:45:22;;;;;;;13.70;8.85;;;;;;;2.36;74.00;96146.28;5073986;28;20054;-63
2023/01/30 13:48:03;;;;;;;13.25;8.85;;;;;;;2.40;73.85;96138.47;5073846;28;20048;-63
2023/01/30 13:50:48;;;;;;;14.70;8.73;;;;;;;2.31;73.46;96140.28;5073873;28;20052;-63
2023/01/30 13:53:25;;;;;;;13.80;8.43;;;;;;;2.26;74.29;96137.78;5073718;28;20542;-64
2023/01/30 13:55:57;;;;;;;14.68;9.50;;;;;;;2.23;73.55;96133.50;5073669;28;20092;-63
2023/01/30 13:58:45;;;;;;;11.65;9.07;;;;;;;2.10;73.91;96130.22;5073481;28;20052;-63
2023/01/30 14:01:14;;;;;;;14.15;9.52;;;;;;;2.12;73.90;96125.03;5073641;28;20047;-63
2023/01/30 14:03:43;;;;;;;15.38;10.40;;;;;;;2.14;72.98;96128.47;5073548;28;20103;-63
2023/01/30 14:06:36;;;;;;;13.13;8.00;;;;;;;1.97;73.26;96131.22;5073605;28;20406;-63
2023/01/30 14:09:21;;;;;;;14.40;8.93;;;;;;;1.99;73.18;96125.16;5073561;28;20045;-64
2023/01/30 14:11:56;;;;;;;13.07;8.32;;;;;;;2.05;73.38;96129.41;5073300;28;20044;-63
2023/01/30 14:14:28;;;;;;;12.68;8.77;;;;;;;2.04;73.46;96132.00;5073343;28;20041;-63
2023/01/30 14:16:58;;;;;;;12.57;9.00;;;;;;;2.07;73.79;96127.66;5073314;28;20048;-63
2023/01/30 14:19:34;;;;;;;12.85;7.40;;;;;;;2.02;72.90;96122.53;5073174;28;20127;-62
2023/01/30 14:22:06;;;;;;;13.27;8.95;;;;;;;2.04;72.53;96130.28;5073424;28;20046;-63
2023/01/30 14:24:35;;;;;;;13.18;8.90;;;;;;;1.99;72.43;96125.16;5073338;28;20497;-62
2023/01/30 14:27:21;;;;;;;12.63;8.30;;;;;;;2.02;71.72;96124.28;5073328;28;20070;-62
2023/01/30 14:29:56;;;;;;;17.00;10.30;;;;;;;1.96;72.63;96124.34;5073198;28;20418;-63
2023/01/30 14:32:55;;;;;;;11.05;7.82;;;;;;;1.81;72.82;96118.47;5073109;28;20047;-63
2023/01/30 14:35:32;;;;;;;14.07;9.23;;;;;;;1.84;73.20;96121.00;5072800;28;20044;-63
2023/01/30 14:38:19;;;;;;;14.20;9.40;;;;;;;1.86;73.68;96118.41;5073164;28;20074;-64
2023/01/30 14:41:10;;;;;;;12.45;8.40;;;;;;;1.79;72.64;96112.47;5072357;28;20490;-62
2023/01/30 14:43:50;;;;;;;13.75;8.75;;;;;;;1.74;72.66;96116.81;5072949;28;20080;-62
2023/01/30 14:46:46;;;;;;;10.40;7.55;;;;;;;1.81;72.21;96113.31;5072967;28;20119;-63
2023/01/30 14:49:32;;;;;;;13.50;8.43;;;;;;;1.82;71.68;96115.03;5072938;28;20049;-62
2023/01/30 14:52:01;;;;;;;10.77;7.47;;;;;;;1.83;71.61;96109.00;5072997;28;20044;-63
2023/01/30 14:54:39;;;;;;;13.00;8.35;;;;;;;1.84;72.00;96118.44;5073287;28;20701;-63
2023/01/30 14:57:22;;;;;;;18.52;10.88;;;;;;;1.93;72.21;96107.19;5073030;28;20476;-63
2023/01/30 14:59:54;;;;;;;14.73;8.73;;;;;;;1.85;72.53;96112.41;5072892;28;20056;-62
2023/01/30 15:02:26;;;;;;;12.13;8.85;;;;;;;1.72;73.34;96103.94;5072877;28;20410;-62
2023/01/30 15:05:06;;;;;;;21.50;8.85;;;;;;;1.45;73.71;96102.47;5072832;28;20055;-63
2023/01/30 15:07:41;;;;;;;13.57;8.27;;;;;;;1.18;74.58;96100.13;5072764;28;20540;-63
2023/01/30 15:10:24;;;;;;;14.52;8.63;;;;;;;1.12;75.47;96097.59;5072875;28;20044;-62
2023/01/30 15:13:19;;;;;;;12.80;8.77;;;;;;;1.02;76.13;96098.53;5072766;28;20452;-63
2023/01/30 15:15:59;;;;;;;11.68;7.97;;;;;;;0.94;76.38;96091.72;5072761;28;20040;-62
2023/01/30 15:18:47;;;;;;;13.13;8.70;;;;;;;0.92;77.40;96088.28;5072729;28;20040;-62
2023/01/30 15:21:41;;;;;;;11.55;7.90;;;;;;;0.87;77.00;96097.75;5072745;28;20513;-62
2023/01/30 15:24:25;;;;;;;14.30;8.95;;;;;;;0.83;77.08;96104.66;5070611;28;20127;-62
2023/01/30 15:27:03;;;;;;;10.60;7.47;;;;;;;0.83;77.01;96108.94;5072623;28;20487;-62
2023/01/30 15:30:04;;;;;;;14.30;8.82;;;;;;;0.74;77.38;96107.28;5072638;28;20060;-62
2023/01/30 15:32:33;;;;;;;12.63;8.70;;;;;;;0.74;77.50;96097.84;5069028;28;20090;-63
2023/01/30 15:35:04;;;;;;;12.93;8.45;;;;;;;0.80;77.21;96104.66;5072558;28;20040;-64
2023/01/30 15:37:34;;;;;;;11.63;8.35;;;;;;;0.79;76.84;96113.28;5072564;28;20477;-63
2023/01/30 15:40:27;;;;;;;14.32;8.00;;;;;;;0.86;77.40;96108.91;5072475;28;20056;-62
2023/01/30 15:43:09;;;;;;;12.52;7.60;;;;;;;0.82;77.20;96107.25;5057900;28;20086;-61
2023/01/30 15:45:48;;;;;;;13.25;8.73;;;;;;;0.74;77.16;96110.72;5072425;28;20067;-63
2023/01/30 15:48:35;;;;;;;11.98;8.65;;;;;;;0.73;77.32;96105.56;5072252;28;20048;-62
2023/01/30 15:51:04;;;;;;;13.70;8.80;;;;;;;0.73;77.16;96103.84;5073442;28;20048;-64
2023/01/30 15:53:35;;;;;;;13.45;8.52;;;;;;;0.69;76.80;96103.88;5076056;28;20044;-62
2023/01/30 15:56:07;;;;;;;13.15;9.10;;;;;;;0.71;77.05;96095.28;5076004;28;20114;-63
2023/01/30 15:58:40;;;;;;;13.68;9.07;;;;;;;0.66;76.56;96097.03;5075835;28;20498;-62
2023/01/30 16:01:14;;;;;;;12.27;8.00;;;;;;;0.47;76.82;96086.84;5075812;28;20106;-64
2023/01/30 16:03:43;;;;;;;11.95;8.15;;;;;;;0.36;76.64;96084.31;5075944;28;20045;-64
2023/01/30 16:06:24;;;;;;;13.55;8.68;;;;;;;0.32;76.90;96089.47;5075818;28;20049;-63
2023/01/30 16:09:00;;;;;;;16.98;11.68;;;;;;;0.27;77.52;96086.09;5075696;28;20090;-63
2023/01/30 16:11:39;;;;;;;17.42;9.75;;;;;;;0.29;77.30;96084.34;5075552;28;20502;-63
2023/01/30 16:14:13;;;;;;;14.88;9.43;;;;;;;0.24;77.65;96085.22;5075711;28;20056;-63
2023/01/30 16:16:45;;;;;;;16.08;9.55;;;;;;;0.25;77.94;96093.81;5075570;28;20048;-64
2023/01/30 16:19:25;;;;;;;14.40;9.63;;;;;;;0.20;77.91;96092.97;5075515;28;20068;-62
2023/01/30 16:21:55;;;;;;;13.05;8.60;;;;;;;0.24;78.23;96084.38;5075491;28;20056;-64
2023/01/30 16:24:27;;;;;;;14.00;8.80;;;;;;;0.32;78.24;96089.47;5075503;28;20059;-62
2023/01/30 16:26:57;;;;;;;14.15;10.27;;;;;;;0.39;78.09;96087.75;5075650;28;20053;-61
2023/01/30 16:29:27;;;;;;;14.20;9.65;;;;;;;0.37;78.79;96085.19;5075387;28;20063;-61
2023/01/30 16:31:57;;;;;;;;;;;;;;;0.39;78.63;96087.75;5075733;28;20128;-63
2023/01/30 16:34:30;;;;;;;14.52;6.93;;;;;;;0.42;79.19;96082.59;5075190;28;19928;-64
2023/01/30 16:37:03;;;;;;;13.70;9.38;;;;;;;0.47;78.74;96085.97;5075282;28;20052;-63
2023/01/30 16:39:33;;;;;;;14.10;8.80;;;;;;;0.52;78.78;96085.94;5075233;28;20490;-60
2023/01/30 16:42:03;;;;;;;13.05;8.63;;;;;;;0.54;78.40;96086.81;5075218;28;20058;-64
2023/01/30 16:44:32;;;;;;;13.55;9.13;;;;;;;0.55;78.71;96085.94;5075140;28;20535;-61
2023/01/30 16:47:05;;;;;;;20.35;10.15;;;;;;;0.52;78.64;96073.94;5075475;28;20136;-62
2023/01/30 16:49:46;;;;;;;19.65;11.13;;;;;;;0.55;78.81;96071.34;5075076;28;20056;-62
2023/01/30 16:52:21;;;;;;;19.88;11.80;;;;;;;0.52;78.47;96076.53;5074987;28;20052;-62
2023/01/30 16:54:51;;;;;;;17.75;11.30;;;;;;;0.53;78.84;96074.78;5074987;28;20110;-62
2023/01/30 16:57:34;;;;;;;20.08;11.85;;;;;;;0.39;78.76;96054.28;5074884;28;20059;-63
2023/01/30 17:00:06;;;;;;;16.80;10.00;;;;;;;0.49;78.75;96067.06;5074699;28;20147;-61
2023/01/30 17:02:37;;;;;;;17.83;11.10;;;;;;;0.45;78.63;96056.84;5074057;28;20064;-64
2023/01/30 17:05:19;;;;;;;15.07;9.57;;;;;;;0.43;78.27;96059.41;5074728;28;20075;-63
2023/01/30 17:07:59;;;;;;;16.23;10.13;;;;;;;0.42;78.72;96057.69;5074931;28;20051;-61
2023/01/30 17:10:50;;;;;;;15.65;10.60;;;;;;;0.32;78.84;96056.88;5074384;28;20049;-63
2023/01/30 17:13:40;;;;;;;17.10;10.98;;;;;;;0.23;79.07;96052.66;5074552;28;20044;-63
2023/01/30 17:16:31;;;;;;;19.42;10.80;;;;;;;0.16;79.30;96044.97;5074467;28;20135;-64
2023/01/30 17:19:00;;;;;;;16.48;10.02;;;;;;;0.11;79.28;96043.28;5074406;28;20049;-62
2023/01/30 17:21:30;;;;;;;15.93;10.07;;;;;;;0.10;79.56;96044.13;5074422;28;20376;-64
2023/01/30 17:24:01;;;;;;;16.98;11.13;;;;;;;0.11;79.51;96042.41;5074460;28;20106;-62
2023/01/30 17:26:31;;;;;;;17.27;10.05;;;;;;;0.05;78.93;96042.44;5074298;28;20048;-63
2023/01/30 17:28:59;;;;;;;14.67;10.23;;;;;;;0.01;78.98;96041.59;5074236;28;20041;-64
2023/01/30 17:31:27;;;;;;;15.82;10.02;;;;;;;-0.01;78.96;96038.16;5074216;28;20048;-63
2023/01/30 17:33:54;;;;;;;14.18;9.65;;;;;;;-0.03;79.13;96043.31;5074146;28;20044;-64
2023/01/30 17:36:27;;;;;;;16.17;9.88;;;;;;;-0.09;79.31;96037.34;5074166;28;20040;-64
2023/01/30 17:38:59;;;;;;;11.98;8.65;;;;;;;-0.10;79.25;96045.91;5074059;28;20044;-64
2023/01/30 17:41:29;;;;;;;14.30;8.82;;;;;;;-0.17;79.12;96045.09;5073853;28;20055;-63
2023/01/30 17:43:56;;;;;;;13.05;9.02;;;;;;;-0.18;79.47;96041.66;5073962;28;20052;-63
2023/01/30 17:46:31;;;;;;;15.10;8.40;;;;;;;-0.23;79.46;96030.56;5074016;28;20052;-63
2023/01/30 17:49:00;;;;;;;14.20;9.30;;;;;;;-0.30;79.70;96036.56;5073803;28;20066;-63
2023/01/30 17:51:34;;;;;;;14.50;9.25;;;;;;;-0.44;79.17;96034.91;5073628;28;20055;-63
2023/01/30 17:54:02;;;;;;;16.38;9.25;;;;;;;-0.57;79.70;96031.47;5073659;28;20055;-63
2023/01/30 17:56:36;;;;;;;14.70;9.05;;;;;;;-0.66;80.01;96034.91;5073646;28;20048;-63
2023/01/30 17:59:04;;;;;;;15.02;9.68;;;;;;;-0.68;80.15;96028.94;5073695;28;20049;-63
2023/01/30 18:01:32;;;;;;;16.30;10.43;;;;;;;-0.71;80.01;96028.09;5073501;28;20154;-64
2023/01/30 18:03:59;;;;;;;15.45;9.40;;;;;;;-0.76;79.97;96020.38;5073431;28;20048;-63
2023/01/30 18:06:30;;;;;;;16.20;9.88;;;;;;;-0.84;80.16;96022.97;5073678;28;20044;-61
2023/01/30 18:09:00;;;;;;;16.48;9.68;;;;;;;-0.83;80.66;96016.97;5073375;28;20052;-61
2023/01/30 18:11:28;;;;;;;11.82;6.93;;;;;;;-0.79;80.59;96012.69;5073235;28;20384;-62
2023/01/30 18:13:56;;;;;;;15.90;9.98;;;;;;;-0.88;80.73;96010.97;5073028;28;20249;-63
2023/01/30 18:16:32;;;;;;;13.40;9.23;;;;;;;-0.95;80.92;96001.56;5073124;28;20048;-62
2023/01/30 18:19:22;;;;;;;15.32;9.52;;;;;;;-0.92;80.93;96010.16;5073249;28;20059;-63
2023/01/30 18:21:51;;;;;;;14.43;9.00;;;;;;;-0.93;80.84;96010.16;5073154;28;20482;-63
2023/01/30 18:24:28;;;;;;;15.18;9.55;;;;;;;-0.98;80.71;96001.56;5073512;28;20063;-63
2023/01/30 18:26:56;;;;;;;15.18;8.45;;;;;;;-1.04;80.59;95994.75;5073239;28;20048;-64
2023/01/30 18:29:23;;;;;;;14.18;9.40;;;;;;;-1.02;80.58;96000.75;5073197;28;20056;-63
2023/01/30 18:31:51;;;;;;;12.15;8.52;;;;;;;-1.03;80.66;95993.88;5073208;28;20044;-63
2023/01/30 18:34:19;;;;;;;18.67;9.35;;;;;;;-1.04;80.67;96003.31;5073169;28;20080;-63
2023/01/30 18:36:48;;;;;;;13.88;8.73;;;;;;;-1.14;80.86;95993.91;5073352;28;20070;-64
2023/01/30 18:39:16;;;;;;;16.00;8.60;;;;;;;-1.18;80.61;95992.16;5073180;28;20052;-62
2023/01/30 18:41:49;;;;;;;13.20;8.48;;;;;;;-1.18;80.67;95985.34;5072957;28;20049;-61
2023/01/30 18:44:17;;;;;;;15.93;8.68;;;;;;;-1.24;80.68;95993.03;5073085;28;20126;-63
2023/01/30 18:46:44;;;;;;;13.38;8.65;;;;;;;-1.31;80.74;95984.50;5073022;28;20048;-63
2023/01/30 18:49:23;;;;;;;13.88;7.85;;;;;;;-1.37;81.10;95996.44;5072907;28;20434;-63
2023/01/30 18:51:51;;;;;;;12.43;8.35;;;;;;;-1.38;81.01;95984.47;5073199;28;20379;-63
2023/01/30 18:54:22;;;;;;;15.55;9.13;;;;;;;-1.40;80.86;95993.06;5072946;28;20106;-62
2023/01/30 18:57:04;;;;;;;13.77;8.13;;;;;;;-1.45;80.81;95989.59;5072934;28;20045;-63
2023/01/30 18:59:31;;;;;;;14.68;8.50;;;;;;;-1.48;81.03;95984.47;5072869;28;20505;-63
2023/01/30 19:01:59;;;;;;;13.93;8.98;;;;;;;-1.55;81.05;95986.19;5072900;28;20087;-63
2023/01/30 19:04:27;;;;;;;15.30;9.20;;;;;;;-1.55;80.88;95973.38;5072877;28;20048;-63
2023/01/30 19:06:54;;;;;;;13.65;9.00;;;;;;;-1.56;81.01;95975.94;5072748;28;20049;-62
2023/01/30 19:09:22;;;;;;;15.45;9.23;;;;;;;-1.70;81.17;95970.78;5072836;28;20399;-63
2023/01/30 19:14:38;;;;;;;14.50;8.65;;;;;;;-1.84;81.21;95965.63;5072892;28;20064;-63